Sighetu Marmatiei, Romania

6:15 PM EET on February 12, 2016 (GMT +0200)
Tautii Magheraus | | Change Station
CLOSE
Current Station
Airport
Location: Baia Mare,
Elevation: 614 ft
Nearby Weather Stations

Elev 614 ft 47.66 °N, 23.47 °E | Updated 15 minutes ago

Clear
Clear
43 °F
Feels Like 38 °F
N
9
Wind Variable Wind from East

Today
High -- | Low -- °F
--% Chance of Precip.
Yesterday
High -- | Low -- °F
Precip. -- in
Pressure 29.80 in
Visibility -9999.0 miles
Clouds
Windchill 38 °F
Dew Point 30 °F
Humidity 61%
Rainfall 0.00 in
Snow Depth Not available.
7:36 AM 5:40 PM
Waxing Crescent, 21% visible
METAR LRBM 121600Z 09008KT CAVOK 06/M01 Q1009
Pressure 29.80 in
Visibility -9999.0 miles
Clouds
Windchill 38 °F
Dew Point 30 °F
Humidity 61%
Rainfall 0.00 in
Snow Depth Not available.
7:36 AM 5:40 PM
Waxing Crescent, 21% visible
METAR LRBM 121600Z 09008KT CAVOK 06/M01 Q1009

10-Day Weather Forecast

Almanac

Astronomy

Feb. 12, 2016 Rise Set
Actual Time
Civil Twilight
Nautical Twilight
Astronomical Twilight
Moon
Length of Visible Light
Length of Day
Tomorrow will be .
, % of the Moon is Illuminated

Today's Extremes

Country Highs Country Lows

Community

WunderPhotos

Upload Photos

1,892,345 photos uploaded!

WunderBlog® & News

Nearby

Air Quality

  Air Quality AQ Index Pollutant
Not available.

Snow Depth

Station Depth Elevation

Earthquake Activity

City Distance Mag. Time & Date
Minimum magnitude displayed is 2.5.

Coastal Water Temperatures

Place Temperature

Stations

Nearby Weather Stations

Station Location Temp. Windchill Dew Point Humidity Wind Precip. Elev Updated Type